Time;durP1;ratioP1;P1;durP2;ratioP2;P2;SDS_P1;SDS_P2;PMS_P1;PMS_P2;Temp;Humidity;BMP_temperature;BMP_pressure;BME280_temperature;BME280_humidity;BME280_pressure;Samples;Min_cycle;Max_cycle;Signal;HPM_P1;HPM_P2
2024/03/31 00:00:15;;;;;;;5.20;1.50;;;;;;;23.67;28.41;97875.16;7400617;19;20054;-57
2024/03/31 00:02:46;;;;;;;;;;;;;;;23.71;27.92;97877.53;7398790;19;20344;-57
2024/03/31 00:05:12;;;;;;;1.77;1.67;;;;;;;23.56;28.17;97884.41;7400537;19;20342;-57
2024/03/31 00:07:38;;;;;;;3.15;1.27;;;;;;;23.63;28.23;97894.78;7398765;19;20514;-57
2024/03/31 00:10:04;;;;;;;1.15;1.15;;;;;;;23.63;28.00;97889.09;7399099;19;20022;-58
2024/03/31 00:12:31;;;;;;;1.08;0.98;;;;;;;23.65;28.27;97880.72;7398183;19;20435;-57
2024/03/31 00:14:57;;;;;;;9.60;2.55;;;;;;;23.69;27.96;97886.66;7401381;19;20451;-57
2024/03/31 00:17:23;;;;;;;1.98;1.00;;;;;;;23.70;28.02;97879.63;7398937;19;20010;-58
2024/03/31 00:19:50;;;;;;;1.00;1.00;;;;;;;23.57;28.07;97887.97;7400214;19;20018;-57
2024/03/31 00:22:16;;;;;;;2.58;0.93;;;;;;;23.55;28.30;97891.44;7399583;19;20011;-57
2024/03/31 00:24:42;;;;;;;4.35;1.15;;;;;;;23.48;28.32;97894.50;7400863;19;20030;-57
2024/03/31 00:27:09;;;;;;;1.52;1.00;;;;;;;23.92;27.47;97889.56;7398842;19;20010;-57
2024/03/31 00:29:36;;;;;;;4.97;1.05;;;;;;;24.18;27.67;97889.72;7400077;19;20015;-57
2024/03/31 00:32:02;;;;;;;3.00;1.65;;;;;;;24.24;27.47;97895.78;7397304;19;20017;-57
2024/03/31 00:34:29;;;;;;;0.50;0.50;;;;;;;23.97;27.52;97896.25;7400299;19;20038;-57
2024/03/31 00:36:55;;;;;;;7.72;1.38;;;;;;;24.07;27.40;97896.91;7397839;19;20011;-57
2024/03/31 00:39:21;;;;;;;4.03;1.73;;;;;;;23.89;27.83;97899.31;7397497;19;20010;-57
2024/03/31 00:41:47;;;;;;;4.30;2.25;;;;;;;23.98;27.75;97892.03;7398342;19;20022;-57
2024/03/31 00:44:13;;;;;;;5.68;1.55;;;;;;;24.37;26.88;97889.50;7399474;19;20506;-57
2024/03/31 00:46:39;;;;;;;1.65;1.58;;;;;;;24.32;26.92;97897.03;7400894;19;20029;-57
2024/03/31 00:49:05;;;;;;;3.40;1.77;;;;;;;24.23;26.97;97897.16;7397679;19;20007;-57
2024/03/31 00:51:31;;;;;;;1.20;1.20;;;;;;;24.21;27.51;97897.78;7400271;19;20398;-57
2024/03/31 00:53:58;;;;;;;4.80;1.42;;;;;;;24.21;27.17;97899.88;7397077;19;20015;-57
2024/03/31 00:56:24;;;;;;;0.85;0.85;;;;;;;24.21;27.34;97900.63;7400333;19;20014;-57
2024/03/31 00:58:50;;;;;;;0.80;0.80;;;;;;;24.15;27.05;97905.94;7396927;19;20014;-57
2024/03/31 01:01:18;;;;;;;1.77;1.20;;;;;;;24.12;27.19;97897.91;7396208;19;20328;-57
2024/03/31 01:03:44;;;;;;;2.08;1.17;;;;;;;24.20;27.25;97898.41;7397757;19;20015;-57
2024/03/31 01:06:16;;;;;;;1.90;1.13;;;;;;;23.57;27.57;97891.56;7396339;19;20026;-57
2024/03/31 01:08:44;;;;;;;1.58;1.48;;;;;;;23.59;27.46;97897.38;7392900;19;20035;-57
2024/03/31 01:11:10;;;;;;;2.58;1.15;;;;;;;23.34;27.74;97894.31;7398483;19;20410;-57
2024/03/31 01:13:37;;;;;;;0.80;0.80;;;;;;;23.39;28.00;97901.75;7396029;19;20017;-57
2024/03/31 01:16:06;;;;;;;3.35;2.15;;;;;;;23.38;27.90;97900.28;7395502;19;20010;-57
2024/03/31 01:18:33;;;;;;;0.50;0.50;;;;;;;23.19;28.00;97900.41;7401295;19;20455;-57
2024/03/31 01:21:02;;;;;;;0.88;0.47;;;;;;;23.02;27.73;97900.69;7397635;19;20033;-57
2024/03/31 01:23:40;;;;;;;3.42;1.55;;;;;;;22.83;28.30;97900.81;7397360;19;20356;-58
2024/03/31 01:26:07;;;;;;;2.58;0.88;;;;;;;22.72;28.25;97898.66;7395638;19;20066;-57
2024/03/31 01:28:33;;;;;;;1.95;0.95;;;;;;;22.66;28.17;97909.56;7398435;19;20015;-57
2024/03/31 01:31:00;;;;;;;0.30;0.30;;;;;;;22.89;28.02;97893.44;7395639;19;20078;-57
2024/03/31 01:33:26;;;;;;;0.80;0.80;;;;;;;22.97;27.83;97893.25;7395912;19;20006;-57
2024/03/31 01:35:52;;;;;;;1.25;1.05;;;;;;;22.99;27.76;97896.22;7397119;19;20010;-57
2024/03/31 01:38:18;;;;;;;0.85;0.85;;;;;;;22.83;28.02;97883.75;7395088;19;20006;-57
2024/03/31 01:40:44;;;;;;;0.75;0.75;;;;;;;22.75;27.82;97886.06;7399252;19;20010;-57
2024/03/31 01:43:11;;;;;;;0.43;0.43;;;;;;;22.78;28.00;97888.47;7397417;19;20050;-57
2024/03/31 01:45:37;;;;;;;2.78;1.10;;;;;;;22.81;28.04;97892.16;7395048;19;20714;-57
2024/03/31 01:48:04;;;;;;;13.45;1.38;;;;;;;22.91;27.96;97884.34;7394646;19;20015;-57
2024/03/31 01:50:30;;;;;;;9.93;1.70;;;;;;;22.48;27.98;97889.94;7397682;19;20031;-57
2024/03/31 01:52:56;;;;;;;7.57;1.63;;;;;;;22.39;28.30;97887.88;7398615;19;20038;-57
2024/03/31 01:55:22;;;;;;;0.50;0.50;;;;;;;22.37;28.21;97887.75;7394634;19;20631;-57
2024/03/31 01:57:48;;;;;;;0.85;0.80;;;;;;;22.36;28.24;97883.44;7394246;19;20014;-57
2024/03/31 02:00:14;;;;;;;0.90;0.90;;;;;;;23.34;27.41;97878.03;7394067;19;20010;-57
2024/03/31 02:02:46;;;;;;;1.17;1.05;;;;;;;23.60;27.08;97878.97;7394701;19;20011;-57
2024/03/31 02:05:13;;;;;;;0.80;0.80;;;;;;;22.57;28.11;97886.31;7399565;19;20062;-57
2024/03/31 02:07:39;;;;;;;1.95;1.42;;;;;;;22.37;28.33;97884.91;7394088;19;20352;-57
2024/03/31 02:10:06;;;;;;;1.35;1.10;;;;;;;22.27;27.96;97881.38;7394546;19;20017;-57
2024/03/31 02:12:35;;;;;;;1.88;1.77;;;;;;;23.26;27.22;97885.22;7394658;19;20027;-57
2024/03/31 02:15:01;;;;;;;16.38;1.17;;;;;;;23.26;27.38;97882.38;7395670;19;20011;-57
2024/03/31 02:17:27;;;;;;;1.17;1.10;;;;;;;22.32;27.98;97885.25;7396345;19;20015;-57
2024/03/31 02:19:53;;;;;;;10.82;2.35;;;;;;;22.36;27.92;97889.09;7396333;19;20335;-57
2024/03/31 02:22:19;;;;;;;0.73;0.73;;;;;;;21.88;28.43;97880.03;7395546;19;20010;-57
2024/03/31 02:24:45;;;;;;;3.05;0.80;;;;;;;22.23;27.96;97875.44;7395648;19;20006;-57
2024/03/31 02:27:12;;;;;;;0.80;0.80;;;;;;;22.37;27.62;97872.84;7393227;19;20014;-57
2024/03/31 02:29:39;;;;;;;0.95;0.95;;;;;;;23.09;27.20;97871.31;7391879;19;20015;-57
2024/03/31 02:32:05;;;;;;;1.45;0.95;;;;;;;23.22;27.37;97862.25;7395289;19;20011;-57
2024/03/31 02:34:32;;;;;;;1.38;0.90;;;;;;;23.12;27.15;97875.78;7394660;19;20062;-57
2024/03/31 02:36:59;;;;;;;1.75;1.52;;;;;;;22.52;27.75;97867.50;7393394;19;20011;-57
2024/03/31 02:39:25;;;;;;;4.68;1.73;;;;;;;22.34;27.98;97871.94;7397103;19;20015;-57
2024/03/31 02:41:51;;;;;;;2.10;0.95;;;;;;;22.30;27.92;97857.50;7393406;19;20044;-57
2024/03/31 02:44:18;;;;;;;5.13;1.23;;;;;;;22.65;27.82;97868.38;7395118;19;20010;-57
2024/03/31 02:46:47;;;;;;;0.90;0.88;;;;;;;22.31;27.74;97864.63;7392757;19;20073;-57
2024/03/31 02:49:13;;;;;;;0.65;0.65;;;;;;;22.34;27.91;97863.44;7393273;19;20017;-57
2024/03/31 02:51:39;;;;;;;1.27;1.23;;;;;;;22.34;27.92;97857.75;7397484;19;20034;-57
2024/03/31 02:54:05;;;;;;;3.15;1.55;;;;;;;22.42;28.12;97852.63;7392718;19;20086;-57
2024/03/31 02:56:32;;;;;;;0.70;0.70;;;;;;;22.23;27.92;97858.41;7394936;19;20017;-57
2024/03/31 02:58:59;;;;;;;6.60;1.70;;;;;;;22.45;28.10;97857.13;7392851;19;20010;-57
2024/03/31 03:01:25;;;;;;;0.57;0.57;;;;;;;22.35;28.17;97847.91;7394764;19;20099;-57
2024/03/31 03:03:51;;;;;;;2.85;1.05;;;;;;;22.19;28.38;97851.72;7395440;19;20455;-57
2024/03/31 03:06:18;;;;;;;0.50;0.50;;;;;;;23.29;27.36;97849.94;7392894;19;20028;-57
2024/03/31 03:08:44;;;;;;;2.92;1.02;;;;;;;23.75;26.60;97849.34;7391609;19;20466;-57
2024/03/31 03:11:15;;;;;;;1.17;0.75;;;;;;;23.57;27.04;97848.94;7392790;19;20018;-57
2024/03/31 03:13:43;;;;;;;0.77;0.77;;;;;;;22.68;27.86;97852.94;7396123;19;20018;-57
2024/03/31 03:16:10;;;;;;;1.38;0.55;;;;;;;22.51;27.44;97849.00;7392366;19;20019;-57
2024/03/31 03:18:36;;;;;;;1.67;0.73;;;;;;;22.41;27.97;97842.66;7392598;19;20037;-57
2024/03/31 03:21:03;;;;;;;3.85;1.33;;;;;;;22.45;27.65;97840.09;7395189;19;20025;-57
2024/03/31 03:23:29;;;;;;;0.77;0.77;;;;;;;22.57;27.99;97840.91;7393555;19;20017;-57
2024/03/31 03:25:57;;;;;;;0.40;0.40;;;;;;;22.59;27.76;97838.22;7396464;19;20086;-57
2024/03/31 03:28:23;;;;;;;0.77;0.75;;;;;;;22.80;27.76;97837.50;7392778;19;20011;-57
2024/03/31 03:30:50;;;;;;;0.45;0.45;;;;;;;23.08;28.09;97832.94;7389020;19;20014;-57
2024/03/31 03:33:20;;;;;;;0.43;0.43;;;;;;;24.08;27.08;97836.53;7390603;19;20603;-57
2024/03/31 03:35:46;;;;;;;0.50;0.50;;;;;;;24.17;26.89;97834.22;7391929;19;20010;-57
2024/03/31 03:38:14;;;;;;;9.38;1.83;;;;;;;23.46;28.04;97838.28;7395351;19;20463;-57
2024/03/31 03:40:42;;;;;;;5.25;1.00;;;;;;;23.39;28.02;97841.34;7391805;19;20031;-57
2024/03/31 03:43:09;;;;;;;0.70;0.70;;;;;;;23.41;28.22;97833.72;7391480;19;20010;-58
2024/03/31 03:45:40;;;;;;;0.60;0.60;;;;;;;23.47;28.27;97839.03;7391121;19;20017;-58
2024/03/31 03:48:06;;;;;;;0.68;0.68;;;;;;;23.41;27.70;97833.72;7392873;19;20011;-57
2024/03/31 03:50:35;;;;;;;1.20;1.20;;;;;;;23.30;27.99;97835.09;7394596;19;20474;-57
2024/03/31 03:53:04;;;;;;;1.77;1.67;;;;;;;23.25;27.71;97839.06;7391469;19;20007;-57
2024/03/31 03:55:31;;;;;;;0.70;0.70;;;;;;;23.41;27.73;97833.72;7391411;19;20019;-57
2024/03/31 03:57:57;;;;;;;0.98;0.82;;;;;;;23.31;28.21;97830.19;7393025;19;20010;-57
2024/03/31 04:00:24;;;;;;;0.43;0.43;;;;;;;23.31;28.23;97830.19;7390952;19;20014;-57
2024/03/31 04:02:50;;;;;;;0.88;0.88;;;;;;;23.33;28.17;97836.00;7391990;19;20019;-58
2024/03/31 04:05:18;;;;;;;1.17;1.13;;;;;;;26.07;26.03;97835.25;7391131;19;20017;-58
2024/03/31 04:07:48;;;;;;;1.35;1.15;;;;;;;23.97;28.03;97830.84;7392149;19;20506;-57
2024/03/31 04:10:15;;;;;;;1.83;1.52;;;;;;;23.82;28.65;97837.00;7391909;19;20373;-57
2024/03/31 04:12:41;;;;;;;2.72;1.23;;;;;;;24.06;28.58;97827.91;7390427;19;20070;-58
2024/03/31 04:15:07;;;;;;;0.50;0.50;;;;;;;24.29;28.00;97832.09;7390294;19;20021;-57
2024/03/31 04:17:34;;;;;;;1.38;0.82;;;;;;;25.52;27.15;97829.44;7391631;19;20039;-57
2024/03/31 04:20:02;;;;;;;0.60;0.60;;;;;;;25.87;26.80;97819.91;7390112;19;20025;-57
2024/03/31 04:22:28;;;;;;;2.47;2.08;;;;;;;24.86;27.35;97828.44;7391556;19;20345;-57
2024/03/31 04:24:55;;;;;;;0.85;0.85;;;;;;;25.17;27.32;97825.22;7390631;19;20459;-57
2024/03/31 04:27:21;;;;;;;0.70;0.70;;;;;;;24.53;27.52;97827.88;7391196;19;20078;-57
2024/03/31 04:29:48;;;;;;;0.38;0.38;;;;;;;24.42;27.82;97818.00;7390911;19;20038;-57
2024/03/31 04:32:15;;;;;;;2.90;1.15;;;;;;;24.39;27.87;97818.47;7389651;19;20030;-57
2024/03/31 04:34:41;;;;;;;0.90;0.63;;;;;;;24.35;27.75;97818.22;7389834;19;20006;-57
2024/03/31 04:37:07;;;;;;;0.85;0.85;;;;;;;24.33;27.85;97815.28;7390190;19;20041;-57
2024/03/31 04:39:34;;;;;;;1.20;0.60;;;;;;;24.30;27.75;97816.53;7389433;19;20090;-57
2024/03/31 04:42:00;;;;;;;0.60;0.60;;;;;;;24.33;27.80;97815.28;7390565;19;20010;-57
2024/03/31 04:44:26;;;;;;;0.98;0.95;;;;;;;24.55;27.77;97822.28;7397338;19;20021;-57
2024/03/31 04:46:53;;;;;;;0.50;0.50;;;;;;;24.60;27.34;97821.19;7399005;19;20085;-57
2024/03/31 04:49:20;;;;;;;0.52;0.52;;;;;;;24.35;27.91;97815.38;7395942;19;20036;-57
2024/03/31 04:51:48;;;;;;;0.52;0.52;;;;;;;24.57;27.69;97820.31;7401799;19;20083;-57
2024/03/31 04:54:16;;;;;;;0.82;0.82;;;;;;;24.48;27.42;97811.91;7397565;19;20007;-57
2024/03/31 04:56:42;;;;;;;0.50;0.50;;;;;;;24.40;27.63;97812.19;7397169;19;20011;-58
2024/03/31 04:59:08;;;;;;;0.40;0.40;;;;;;;24.43;27.70;97813.03;7402538;19;20015;-57
2024/03/31 05:01:34;;;;;;;0.10;0.10;;;;;;;24.24;28.28;97810.44;7396718;19;20010;-57
2024/03/31 05:04:00;;;;;;;1.30;0.50;;;;;;;24.21;27.88;97803.16;7396787;19;20002;-57
2024/03/31 05:06:27;;;;;;;1.50;1.42;;;;;;;24.50;27.88;97812.78;7396228;19;20014;-57
2024/03/31 05:08:53;;;;;;;0.47;0.47;;;;;;;24.81;27.46;97807.53;7397529;19;20034;-57
2024/03/31 05:11:20;;;;;;;1.17;1.17;;;;;;;24.66;27.54;97813.00;7397039;19;20051;-57
2024/03/31 05:13:47;;;;;;;1.05;1.05;;;;;;;24.76;27.64;97822.16;7397025;19;20344;-57
2024/03/31 05:16:16;;;;;;;10.13;1.42;;;;;;;24.86;27.63;97814.22;7395858;19;20010;-57
2024/03/31 05:18:42;;;;;;;9.02;1.20;;;;;;;25.56;26.84;97826.06;7399764;19;20343;-57
2024/03/31 05:21:13;;;;;;;;;;;;;;;25.38;27.27;97817.19;7400774;19;20014;-58
2024/03/31 05:23:41;;;;;;;0.68;0.68;;;;;;;25.52;27.45;97818.03;7397719;19;19922;-57
2024/03/31 05:26:13;;;;;;;0.65;0.52;;;;;;;24.87;27.77;97827.06;7396585;19;20014;-57
2024/03/31 05:28:42;;;;;;;0.57;0.45;;;;;;;26.30;27.09;97820.81;7393996;19;20343;-58
2024/03/31 05:31:08;;;;;;;0.60;0.60;;;;;;;26.62;26.59;97827.47;7399728;19;20006;-58
2024/03/31 05:33:49;;;;;;;0.55;0.55;;;;;;;26.93;26.15;97825.56;7394549;19;20010;-58
2024/03/31 05:36:15;;;;;;;14.25;1.25;;;;;;;27.00;26.54;97820.88;7395763;19;20007;-58
2024/03/31 05:38:42;;;;;;;0.65;0.65;;;;;;;27.00;26.57;97829.47;7395096;19;20074;-57
2024/03/31 05:41:15;;;;;;;0.50;0.50;;;;;;;27.09;25.82;97834.22;7395027;19;20011;-58
2024/03/31 05:43:41;;;;;;;1.30;1.20;;;;;;;27.01;25.92;97828.81;7395420;19;20025;-58
2024/03/31 05:46:07;;;;;;;0.57;0.57;;;;;;;27.04;26.32;97826.81;7395705;19;20034;-57
2024/03/31 05:48:34;;;;;;;1.50;1.00;;;;;;;27.01;26.48;97833.78;7394011;19;20027;-57
2024/03/31 05:51:00;;;;;;;0.38;0.38;;;;;;;26.80;26.61;97829.19;7399623;19;20021;-57
2024/03/31 05:53:28;;;;;;;1.92;1.15;;;;;;;25.85;27.44;97829.09;7394456;19;20017;-57
2024/03/31 05:55:54;;;;;;;1.35;1.25;;;;;;;25.96;27.09;97838.94;7394009;19;20573;-57
2024/03/31 05:58:20;;;;;;;1.05;1.05;;;;;;;26.14;27.20;97837.09;7394140;19;20034;-57
2024/03/31 06:00:48;;;;;;;3.95;0.95;;;;;;;26.54;27.00;97841.34;7395115;19;20019;-57
2024/03/31 06:03:15;;;;;;;1.20;1.20;;;;;;;27.33;26.00;97840.38;7394696;19;20014;-57
2024/03/31 06:05:41;;;;;;;4.30;1.35;;;;;;;27.26;26.05;97836.47;7394977;19;20146;-57
2024/03/31 06:08:07;;;;;;;0.60;0.60;;;;;;;27.33;26.15;97834.66;7393159;19;20017;-57
2024/03/31 06:10:37;;;;;;;0.70;0.70;;;;;;;27.35;26.03;97838.38;7393567;19;20039;-57
2024/03/31 06:13:05;;;;;;;0.40;0.40;;;;;;;27.47;26.29;97838.22;7394533;19;20018;-57
2024/03/31 06:15:31;;;;;;;0.77;0.77;;;;;;;27.58;25.98;97831.59;7394313;19;20482;-57
2024/03/31 06:17:58;;;;;;;1.55;1.48;;;;;;;27.58;26.22;97834.47;7395127;19;20007;-57
2024/03/31 06:20:25;;;;;;;1.30;1.17;;;;;;;27.63;26.01;97834.03;7397778;19;20045;-57
2024/03/31 06:22:51;;;;;;;0.75;0.75;;;;;;;27.79;25.96;97828.31;7394435;19;20011;-57
2024/03/31 06:25:18;;;;;;;0.93;0.82;;;;;;;28.36;26.02;97829.56;7394880;19;20066;-57
2024/03/31 06:27:44;;;;;;;0.38;0.30;;;;;;;28.51;25.63;97833.78;7393341;19;20018;-57
2024/03/31 06:30:10;;;;;;;2.00;1.45;;;;;;;28.36;25.86;97838.13;7397828;19;20488;-57
2024/03/31 06:32:37;;;;;;;1.25;0.70;;;;;;;28.33;26.03;97833.69;7393617;19;20014;-57
2024/03/31 06:35:04;;;;;;;3.75;1.30;;;;;;;28.28;25.85;97837.78;7393746;19;20017;-57
2024/03/31 06:37:30;;;;;;;1.25;1.13;;;;;;;28.06;25.96;97838.88;7394171;19;20058;-57
2024/03/31 06:39:58;;;;;;;3.15;1.52;;;;;;;28.09;26.44;97844.03;7393551;19;20748;-57
2024/03/31 06:42:25;;;;;;;1.17;0.65;;;;;;;26.59;27.68;97845.88;7398282;19;20062;-57
2024/03/31 06:44:53;;;;;;;2.22;0.95;;;;;;;26.11;27.76;97844.06;7393740;19;20018;-57
2024/03/31 06:47:19;;;;;;;0.82;0.82;;;;;;;26.17;27.76;97848.00;7392198;19;20507;-57
2024/03/31 06:49:45;;;;;;;5.18;1.45;;;;;;;26.37;27.73;97842.63;7394926;19;20082;-57
2024/03/31 06:52:11;;;;;;;0.88;0.80;;;;;;;26.49;27.92;97834.66;7394299;19;20471;-57
2024/03/31 06:54:37;;;;;;;1.70;0.82;;;;;;;26.61;27.96;97849.59;7395152;19;20010;-57
2024/03/31 06:57:06;;;;;;;2.90;1.00;;;;;;;26.10;28.31;97837.63;7393092;19;20014;-57
2024/03/31 06:59:32;;;;;;;5.70;1.45;;;;;;;26.24;28.82;97837.63;7394460;19;20047;-57
2024/03/31 07:01:58;;;;;;;0.60;0.60;;;;;;;26.15;28.69;97833.63;7393055;19;20467;-57
2024/03/31 07:04:25;;;;;;;1.23;1.15;;;;;;;27.16;27.86;97843.81;7392279;19;20418;-57
2024/03/31 07:06:51;;;;;;;0.88;0.88;;;;;;;26.77;28.50;97836.16;7390236;19;20010;-57
2024/03/31 07:09:19;;;;;;;3.53;2.10;;;;;;;26.96;28.30;97837.84;7390970;19;20011;-57
2024/03/31 07:11:45;;;;;;;4.05;2.25;;;;;;;27.06;28.03;97838.34;7391192;19;20355;-57
2024/03/31 07:14:12;;;;;;;2.25;1.95;;;;;;;26.68;28.88;97848.50;7391517;19;20014;-57
2024/03/31 07:16:40;;;;;;;3.85;2.03;;;;;;;26.73;28.96;97850.22;7394640;19;20014;-57
2024/03/31 07:19:06;;;;;;;6.00;1.88;;;;;;;27.46;28.42;97848.19;7393246;19;20099;-57
2024/03/31 07:21:33;;;;;;;7.93;2.38;;;;;;;26.87;29.27;97842.41;7395097;19;20070;-57
2024/03/31 07:23:59;;;;;;;8.25;2.63;;;;;;;26.87;29.75;97842.41;7393280;19;20022;-57
2024/03/31 07:26:26;;;;;;;3.67;1.83;;;;;;;26.89;29.71;97844.63;7394587;19;20010;-57
2024/03/31 07:28:54;;;;;;;14.50;2.85;;;;;;;26.99;29.59;97842.25;7391550;19;20010;-57
2024/03/31 07:31:22;;;;;;;2.67;2.05;;;;;;;27.28;29.96;97845.16;7392198;19;20014;-57
2024/03/31 07:33:49;;;;;;;3.17;2.17;;;;;;;27.47;29.81;97841.06;7391976;19;20018;-57
2024/03/31 07:36:15;;;;;;;9.00;3.20;;;;;;;27.69;30.07;97842.88;7392259;19;20010;-57
2024/03/31 07:38:41;;;;;;;5.75;3.05;;;;;;;27.97;30.08;97840.63;7392299;19;20392;-57
2024/03/31 07:41:07;;;;;;;10.23;4.82;;;;;;;28.22;29.71;97843.22;7392551;19;20010;-57
2024/03/31 07:43:34;;;;;;;5.05;2.30;;;;;;;28.23;29.82;97847.56;7392347;19;20006;-57
2024/03/31 07:46:00;;;;;;;12.88;2.65;;;;;;;28.10;29.69;97844.78;7392608;19;20070;-57
2024/03/31 07:48:26;;;;;;;9.15;3.90;;;;;;;28.23;30.12;97847.56;7391820;19;20336;-57
2024/03/31 07:50:52;;;;;;;7.30;2.85;;;;;;;28.03;30.41;97849.50;7393396;19;20033;-57
2024/03/31 07:53:18;;;;;;;10.55;2.72;;;;;;;28.10;30.19;97851.25;7390555;19;20081;-57
2024/03/31 07:55:44;;;;;;;6.95;2.55;;;;;;;28.17;30.04;97855.88;7391433;19;20015;-57
2024/03/31 07:58:11;;;;;;;16.83;3.25;;;;;;;28.26;30.66;97854.84;7392277;19;20026;-57
2024/03/31 08:00:37;;;;;;;7.15;2.63;;;;;;;28.64;30.46;97846.53;7387555;19;20089;-57
2024/03/31 08:03:03;;;;;;;5.43;2.45;;;;;;;28.67;30.45;97842.38;7387355;19;20536;-58
2024/03/31 08:05:29;;;;;;;9.48;1.98;;;;;;;28.73;30.21;97839.75;7389546;19;20011;-57
2024/03/31 08:07:55;;;;;;;8.95;2.75;;;;;;;28.69;30.67;97839.59;7395471;19;20041;-57
2024/03/31 08:10:21;;;;;;;13.95;2.67;;;;;;;28.95;30.48;97837.84;7392132;19;20007;-57
2024/03/31 08:12:47;;;;;;;10.70;3.17;;;;;;;29.79;29.75;97840.63;7391236;19;20084;-57
2024/03/31 08:15:14;;;;;;;5.90;1.67;;;;;;;29.87;29.63;97838.81;7394285;19;20015;-57
2024/03/31 08:17:40;;;;;;;4.53;2.00;;;;;;;30.11;29.74;97835.38;7398564;19;20002;-57
2024/03/31 08:20:06;;;;;;;6.40;2.58;;;;;;;30.23;29.54;97833.72;7402672;19;20010;-57
2024/03/31 08:22:32;;;;;;;5.40;2.00;;;;;;;30.50;29.83;97841.16;7400022;19;20047;-57
2024/03/31 08:24:59;;;;;;;3.45;1.98;;;;;;;31.25;29.29;97830.19;7399283;19;20043;-57
2024/03/31 08:27:25;;;;;;;2.75;1.85;;;;;;;31.05;29.88;97835.97;7395295;19;20021;-57
2024/03/31 08:29:54;;;;;;;4.85;1.20;;;;;;;31.11;29.83;97836.19;7397855;19;20448;-57
2024/03/31 08:32:20;;;;;;;4.28;1.55;;;;;;;30.92;29.80;97834.09;7399297;19;20356;-57
2024/03/31 08:34:46;;;;;;;5.78;1.45;;;;;;;30.81;29.54;97840.13;7398713;19;20403;-57
2024/03/31 08:37:12;;;;;;;5.97;2.20;;;;;;;30.74;29.05;97839.16;7398234;19;20011;-57
2024/03/31 08:39:38;;;;;;;13.95;2.03;;;;;;;30.78;29.42;97836.44;7398697;19;20024;-57
2024/03/31 08:42:17;;;;;;;5.70;1.40;;;;;;;30.36;29.51;97843.53;7401283;19;20023;-58
2024/03/31 08:44:45;;;;;;;4.85;2.25;;;;;;;30.63;29.23;97848.84;7398592;19;20066;-58
2024/03/31 08:47:17;;;;;;;17.02;2.22;;;;;;;30.27;28.85;97847.47;7399024;19;20011;-58
2024/03/31 08:49:44;;;;;;;2.30;1.38;;;;;;;29.86;29.37;97851.69;7398187;19;20019;-58
2024/03/31 08:52:10;;;;;;;3.50;2.00;;;;;;;30.86;28.75;97851.13;7400069;19;20014;-58
2024/03/31 08:54:38;;;;;;;1.38;1.23;;;;;;;31.13;28.02;97853.50;7398642;19;20038;-58
2024/03/31 08:57:04;;;;;;;3.90;1.65;;;;;;;31.23;28.01;97853.84;7398152;19;20010;-58
2024/03/31 08:59:30;;;;;;;0.47;0.47;;;;;;;31.31;28.03;97851.25;7397814;19;20010;-58
2024/03/31 09:01:58;;;;;;;5.18;1.75;;;;;;;32.04;27.65;97842.06;7400106;19;20070;-58
2024/03/31 09:04:24;;;;;;;2.03;0.85;;;;;;;31.91;27.47;97834.44;7397920;19;20021;-58
2024/03/31 09:06:51;;;;;;;5.68;1.67;;;;;;;32.02;27.53;97833.38;7398089;19;20466;-58
2024/03/31 09:09:22;;;;;;;4.88;1.92;;;;;;;32.11;27.52;97835.09;7395659;19;20007;-58
2024/03/31 09:11:49;;;;;;;14.00;3.22;;;;;;;32.26;27.30;97822.56;7398252;19;20019;-58
2024/03/31 09:14:16;;;;;;;6.50;1.52;;;;;;;32.13;27.08;97829.41;7399762;19;20352;-58
2024/03/31 09:16:47;;;;;;;5.82;1.73;;;;;;;31.99;27.35;97815.28;7398516;19;20022;-58
2024/03/31 09:19:14;;;;;;;3.38;1.95;;;;;;;32.08;27.09;97824.91;7397627;19;20467;-58
2024/03/31 09:21:47;;;;;;;2.47;1.25;;;;;;;32.13;27.17;97820.75;7402260;19;20011;-58
2024/03/31 09:24:14;;;;;;;12.70;1.27;;;;;;;32.53;27.21;97821.91;7397771;19;20019;-58
2024/03/31 09:26:41;;;;;;;6.55;1.05;;;;;;;32.82;27.22;97829.94;7397423;19;20462;-58
2024/03/31 09:29:08;;;;;;;5.35;1.65;;;;;;;33.02;26.92;97834.81;7393214;19;20037;-58
2024/03/31 09:31:35;;;;;;;2.15;0.98;;;;;;;33.10;27.15;97835.00;7395609;19;20011;-58
2024/03/31 09:34:01;;;;;;;5.55;1.65;;;;;;;33.30;27.07;97842.03;7396022;19;20035;-58
2024/03/31 09:36:27;;;;;;;6.25;1.88;;;;;;;33.35;26.61;97857.31;7396643;19;20062;-58
2024/03/31 09:38:53;;;;;;;4.28;1.52;;;;;;;32.90;26.50;97859.00;7396934;19;20078;-57
2024/03/31 09:41:20;;;;;;;1.90;1.45;;;;;;;31.40;27.53;97864.50;7396458;19;20018;-57
2024/03/31 09:43:46;;;;;;;5.55;1.65;;;;;;;32.31;26.72;97870.28;7396883;19;20018;-57
2024/03/31 09:46:15;;;;;;;4.97;1.13;;;;;;;32.41;26.54;97872.69;7396385;19;20007;-57
2024/03/31 09:48:45;;;;;;;2.42;1.10;;;;;;;32.45;26.33;97873.56;7396113;19;20015;-57
2024/03/31 09:51:19;;;;;;;1.33;0.80;;;;;;;32.54;26.50;97875.28;7398106;19;20041;-57
2024/03/31 09:53:59;;;;;;;6.82;1.92;;;;;;;33.37;26.12;97868.91;7394957;19;20002;-57
2024/03/31 09:56:35;;;;;;;9.63;2.97;;;;;;;33.54;25.67;97871.53;7399459;19;20011;-57
2024/03/31 09:59:08;;;;;;;3.72;1.88;;;;;;;33.78;25.86;97859.81;7395982;19;20010;-57
2024/03/31 10:01:38;;;;;;;2.72;1.00;;;;;;;32.20;26.36;97848.34;7395753;19;20014;-58
2024/03/31 10:04:12;;;;;;;2.92;1.15;;;;;;;32.32;26.15;97851.56;7395787;19;20014;-58
2024/03/31 10:06:39;;;;;;;1.98;1.20;;;;;;;32.41;25.83;97844.63;7394418;19;20487;-58
2024/03/31 10:09:07;;;;;;;0.68;0.68;;;;;;;32.14;26.49;97839.50;7394637;19;20024;-58
2024/03/31 10:11:34;;;;;;;3.60;1.85;;;;;;;32.28;26.25;97839.91;7397546;19;20011;-58
2024/03/31 10:14:00;;;;;;;3.33;1.10;;;;;;;32.44;26.01;97842.53;7395776;19;20038;-57
2024/03/31 10:16:27;;;;;;;1.52;1.00;;;;;;;32.94;25.78;97843.97;7400060;19;20010;-57
2024/03/31 10:18:56;;;;;;;5.72;1.08;;;;;;;32.82;25.74;97846.50;7393985;19;20018;-58
2024/03/31 10:21:23;;;;;;;7.88;2.00;;;;;;;32.71;25.64;97850.53;7399019;19;20037;-58
2024/03/31 10:23:52;;;;;;;2.28;1.63;;;;;;;32.56;25.62;97849.41;7395690;19;20022;-57
2024/03/31 10:26:20;;;;;;;2.25;1.48;;;;;;;32.51;25.84;97852.84;7399566;19;20010;-57
2024/03/31 10:28:46;;;;;;;3.75;1.23;;;;;;;32.63;25.86;97862.59;7393489;19;20010;-57
2024/03/31 10:31:12;;;;;;;8.43;2.00;;;;;;;32.70;25.91;97863.47;7395037;19;20014;-57
2024/03/31 10:33:38;;;;;;;2.45;0.85;;;;;;;32.55;25.92;97859.44;7395623;19;20010;-57
2024/03/31 10:36:06;;;;;;;4.03;0.95;;;;;;;32.68;26.14;97852.59;7398490;19;20010;-57
2024/03/31 10:38:34;;;;;;;3.05;0.82;;;;;;;32.69;26.02;97848.31;7394958;19;20011;-57
2024/03/31 10:41:02;;;;;;;2.78;0.80;;;;;;;33.43;25.44;97843.81;7393784;19;20011;-57
2024/03/31 10:43:28;;;;;;;2.88;1.00;;;;;;;33.50;25.33;97841.81;7394679;19;20025;-58
2024/03/31 10:45:56;;;;;;;2.28;0.85;;;;;;;33.33;25.76;97840.66;7397837;19;20018;-58
2024/03/31 10:48:22;;;;;;;2.38;1.42;;;;;;;33.15;25.96;97836.59;7394101;19;20003;-58
2024/03/31 10:50:48;;;;;;;19.85;4.50;;;;;;;33.03;25.78;97825.47;7396905;19;20023;-58
2024/03/31 10:53:27;;;;;;;4.28;2.35;;;;;;;33.40;26.06;97821.31;7394410;19;20336;-58
2024/03/31 10:55:56;;;;;;;4.10;1.15;;;;;;;33.73;25.64;97823.59;7397372;19;20011;-58
2024/03/31 10:58:22;;;;;;;4.57;0.85;;;;;;;33.68;25.53;97810.47;7392483;19;20022;-58
2024/03/31 11:00:48;;;;;;;9.82;1.60;;;;;;;33.88;25.48;97805.16;7393513;19;20032;-58
2024/03/31 11:03:24;;;;;;;5.75;2.38;;;;;;;33.73;25.52;97806.28;7393394;19;20458;-58
2024/03/31 11:05:51;;;;;;;3.55;1.50;;;;;;;33.93;25.52;97798.06;7397591;19;20355;-58
2024/03/31 11:08:17;;;;;;;7.60;1.35;;;;;;;33.68;24.79;97798.94;7392538;19;20040;-58
2024/03/31 11:10:45;;;;;;;3.78;1.60;;;;;;;33.90;25.11;97795.81;7393848;19;20011;-58
2024/03/31 11:13:11;;;;;;;4.88;1.70;;;;;;;33.73;24.80;97788.94;7393402;19;20196;-58
2024/03/31 11:15:38;;;;;;;2.88;1.58;;;;;;;33.82;25.18;97784.81;7395509;19;20014;-58
2024/03/31 11:18:05;;;;;;;1.10;0.98;;;;;;;34.05;25.30;97783.91;7392837;19;20018;-58
2024/03/31 11:20:31;;;;;;;6.63;2.47;;;;;;;34.34;25.28;97773.66;7395952;19;20010;-58
2024/03/31 11:22:57;;;;;;;5.15;2.35;;;;;;;34.30;24.81;97783.00;7394110;19;20079;-58
2024/03/31 11:25:24;;;;;;;2.60;1.55;;;;;;;34.01;24.64;97774.41;7392742;19;20463;-58
2024/03/31 11:27:50;;;;;;;3.90;1.02;;;;;;;33.98;25.14;97773.59;7394746;19;20418;-58
2024/03/31 11:30:17;;;;;;;2.17;1.70;;;;;;;34.07;25.31;97786.81;7392750;19;20022;-58
2024/03/31 11:32:44;;;;;;;3.88;1.83;;;;;;;34.07;25.21;97768.75;7392106;19;20013;-57